XATRT MMPR-MMGL
Flight info
| Callsign | XATRT |
|---|---|
| Flight time | N/A |
| Altitude | 25000 |
| Route | VOLAT1D VOLAT UJ14S GDL |
| Aircraft | C700/M-SBDGHM1RWXY/LB2 |
Departure
| Time | 2026-04-19 05:32 |
|---|---|
| Airport | Puerto Vallarta International Airport (MMPR) |
Arrival
| Time | N/A |
|---|---|
| Airport | Guadalajara International Airport (MMGL) |
| Time | Latitude | Longitude | Altitude | Speed | Heading |
|---|---|---|---|---|---|
| 2026-04-19 05:13 | 20.67600 | -105.25182 | 17 ft | 0 kts | 48° |
| 2026-04-19 05:14 | 20.67607 | -105.25174 | 24 ft | 0 kts | 20° |
| 2026-04-19 05:14 | 20.67623 | -105.25169 | 23 ft | 0 kts | 316° |
| 2026-04-19 05:27 | 20.67626 | -105.25172 | 23 ft | 4 kts | 316° |
| 2026-04-19 05:28 | 20.67674 | -105.25217 | 23 ft | 12 kts | 328° |
| 2026-04-19 05:28 | 20.67728 | -105.25182 | 24 ft | 11 kts | 46° |
| 2026-04-19 05:28 | 20.67795 | -105.25117 | 23 ft | 13 kts | 2° |
| 2026-04-19 05:28 | 20.67873 | -105.25183 | 25 ft | 16 kts | 316° |
| 2026-04-19 05:29 | 20.67974 | -105.25199 | 24 ft | 19 kts | 45° |
| 2026-04-19 05:29 | 20.68071 | -105.25085 | 25 ft | 23 kts | 48° |
| 2026-04-19 05:29 | 20.68184 | -105.24950 | 25 ft | 26 kts | 46° |
| 2026-04-19 05:29 | 20.68316 | -105.24802 | 24 ft | 29 kts | 47° |
| 2026-04-19 05:30 | 20.68458 | -105.24635 | 25 ft | 32 kts | 49° |
| 2026-04-19 05:30 | 20.68615 | -105.24457 | 23 ft | 34 kts | 46° |
| 2026-04-19 05:30 | 20.68750 | -105.24304 | 24 ft | 21 kts | 46° |
| 2026-04-19 05:30 | 20.68793 | -105.24263 | 24 ft | 8 kts | 28° |
| 2026-04-19 05:31 | 20.68859 | -105.24275 | 23 ft | 12 kts | 319° |
| 2026-04-19 05:31 | 20.68921 | -105.24339 | 23 ft | 10 kts | 302° |
| 2026-04-19 05:31 | 20.68909 | -105.24385 | 25 ft | 0 kts | 227° |
| 2026-04-19 05:32 | 20.68879 | -105.24419 | 23 ft | 38 kts | 226° |
| 2026-04-19 05:32 | 20.68434 | -105.24926 | 59 ft | 141 kts | 225° |
| 2026-04-19 05:32 | 20.67687 | -105.25794 | 831 ft | 178 kts | 227° |
| 2026-04-19 05:33 | 20.66759 | -105.26846 | 1745 ft | 209 kts | 226° |
| 2026-04-19 05:33 | 20.65715 | -105.28004 | 2197 ft | 214 kts | 226° |
| 2026-04-19 05:33 | 20.64714 | -105.29133 | 2618 ft | 212 kts | 227° |
| 2026-04-19 05:33 | 20.63632 | -105.30362 | 3057 ft | 241 kts | 226° |
| 2026-04-19 05:34 | 20.62420 | -105.31736 | 3501 ft | 262 kts | 227° |
| 2026-04-19 05:34 | 20.61041 | -105.33034 | 3943 ft | 269 kts | 212° |
| 2026-04-19 05:34 | 20.59306 | -105.33834 | 4393 ft | 274 kts | 195° |
| 2026-04-19 05:34 | 20.57425 | -105.34048 | 4934 ft | 272 kts | 178° |
| 2026-04-19 05:35 | 20.55541 | -105.33661 | 5562 ft | 279 kts | 160° |
| 2026-04-19 05:35 | 20.53796 | -105.32740 | 6199 ft | 281 kts | 152° |
| 2026-04-19 05:35 | 20.52063 | -105.31758 | 6813 ft | 284 kts | 153° |
| 2026-04-19 05:35 | 20.50315 | -105.30774 | 7423 ft | 282 kts | 152° |
| 2026-04-19 05:36 | 20.48581 | -105.29791 | 8047 ft | 283 kts | 153° |
| 2026-04-19 05:36 | 20.46838 | -105.28804 | 8676 ft | 285 kts | 153° |
| 2026-04-19 05:36 | 20.45077 | -105.27810 | 9317 ft | 288 kts | 153° |
| 2026-04-19 05:36 | 20.43384 | -105.26671 | 9959 ft | 287 kts | 142° |
| 2026-04-19 05:37 | 20.41994 | -105.25111 | 10549 ft | 292 kts | 129° |
| 2026-04-19 05:37 | 20.41014 | -105.23313 | 11138 ft | 275 kts | 116° |
| 2026-04-19 05:37 | 20.40418 | -105.21281 | 11744 ft | 309 kts | 103° |
| 2026-04-19 05:37 | 20.40246 | -105.18887 | 12377 ft | 337 kts | 94° |
| 2026-04-19 05:38 | 20.40162 | -105.16349 | 13341 ft | 342 kts | 94° |
| 2026-04-19 05:38 | 20.40067 | -105.13792 | 14858 ft | 350 kts | 94° |
| 2026-04-19 05:38 | 20.39965 | -105.11126 | 15554 ft | 362 kts | 94° |
| 2026-04-19 05:38 | 20.39867 | -105.08458 | 16258 ft | 363 kts | 94° |
| 2026-04-19 05:39 | 20.39765 | -105.05760 | 16964 ft | 371 kts | 94° |
| 2026-04-19 05:39 | 20.39659 | -105.02994 | 17326 ft | 374 kts | 94° |
| 2026-04-19 05:39 | 20.39555 | -105.00198 | 17664 ft | 372 kts | 94° |
| 2026-04-19 05:39 | 20.39450 | -104.97466 | 17998 ft | 377 kts | 94° |
| 2026-04-19 05:40 | 20.39341 | -104.94662 | 18333 ft | 379 kts | 94° |
| 2026-04-19 05:40 | 20.39232 | -104.91854 | 18630 ft | 380 kts | 94° |
| 2026-04-19 05:40 | 20.39124 | -104.89032 | 18924 ft | 382 kts | 94° |
| 2026-04-19 05:40 | 20.39013 | -104.86195 | 19219 ft | 384 kts | 94° |
| 2026-04-19 05:41 | 20.38901 | -104.83341 | 19515 ft | 386 kts | 94° |
| 2026-04-19 05:41 | 20.38788 | -104.80470 | 19818 ft | 389 kts | 94° |
| 2026-04-19 05:41 | 20.38674 | -104.77573 | 20120 ft | 392 kts | 94° |
| 2026-04-19 05:41 | 20.38559 | -104.74664 | 20426 ft | 394 kts | 94° |
| 2026-04-19 05:42 | 20.38441 | -104.71734 | 20739 ft | 397 kts | 94° |
| 2026-04-19 05:42 | 20.38325 | -104.68822 | 21045 ft | 400 kts | 94° |
| 2026-04-19 05:42 | 20.38206 | -104.65844 | 21362 ft | 403 kts | 95° |
| 2026-04-19 05:42 | 20.38086 | -104.62846 | 21675 ft | 405 kts | 95° |
| 2026-04-19 05:43 | 20.37963 | -104.59840 | 22001 ft | 407 kts | 95° |
| 2026-04-19 05:43 | 20.37840 | -104.56813 | 22325 ft | 410 kts | 95° |
| 2026-04-19 05:43 | 20.37718 | -104.53788 | 22654 ft | 413 kts | 95° |
| 2026-04-19 05:43 | 20.37589 | -104.50713 | 22986 ft | 415 kts | 95° |
| 2026-04-19 05:44 | 20.37463 | -104.47635 | 23319 ft | 418 kts | 95° |
| 2026-04-19 05:44 | 20.37335 | -104.44531 | 23658 ft | 421 kts | 95° |
| 2026-04-19 05:44 | 20.37205 | -104.41399 | 23938 ft | 423 kts | 95° |
| 2026-04-19 05:44 | 20.37074 | -104.38256 | 24220 ft | 426 kts | 95° |
| 2026-04-19 05:45 | 20.36941 | -104.35094 | 24499 ft | 427 kts | 95° |
| 2026-04-19 05:45 | 20.36805 | -104.31916 | 24792 ft | 429 kts | 95° |
| 2026-04-19 05:45 | 20.36676 | -104.28704 | 25023 ft | 445 kts | 95° |
| 2026-04-19 05:45 | 20.36526 | -104.25326 | 25033 ft | 461 kts | 95° |
| 2026-04-19 05:46 | 20.36386 | -104.21923 | 25036 ft | 459 kts | 95° |
| 2026-04-19 05:46 | 20.36255 | -104.18564 | 25025 ft | 461 kts | 95° |
| 2026-04-19 05:46 | 20.36125 | -104.15140 | 25034 ft | 464 kts | 95° |
| 2026-04-19 05:46 | 20.35969 | -104.11720 | 25034 ft | 461 kts | 96° |
| 2026-04-19 05:47 | 20.35771 | -104.08308 | 25028 ft | 460 kts | 96° |
| 2026-04-19 05:47 | 20.35618 | -104.04902 | 25029 ft | 461 kts | 95° |
| 2026-04-19 05:47 | 20.35498 | -104.01472 | 25030 ft | 461 kts | 95° |
| 2026-04-19 05:47 | 20.35349 | -103.98061 | 25025 ft | 461 kts | 95° |
| 2026-04-19 05:48 | 20.35180 | -103.94638 | 25025 ft | 462 kts | 96° |
| 2026-04-19 05:48 | 20.35023 | -103.91213 | 25014 ft | 463 kts | 95° |
| 2026-04-19 05:48 | 20.34881 | -103.87819 | 24529 ft | 451 kts | 95° |
| 2026-04-19 05:48 | 20.34740 | -103.84550 | 23952 ft | 431 kts | 95° |
| 2026-04-19 05:49 | 20.34594 | -103.81464 | 23369 ft | 414 kts | 96° |
| 2026-04-19 05:49 | 20.34453 | -103.78437 | 22807 ft | 404 kts | 95° |
| 2026-04-19 05:49 | 20.34316 | -103.75461 | 22279 ft | 402 kts | 95° |
| 2026-04-19 05:49 | 20.34181 | -103.72479 | 21747 ft | 403 kts | 95° |
| 2026-04-19 05:50 | 20.34044 | -103.69496 | 21216 ft | 402 kts | 95° |
| 2026-04-19 05:50 | 20.33907 | -103.66542 | 20689 ft | 396 kts | 95° |
| 2026-04-19 05:50 | 20.33773 | -103.63629 | 20173 ft | 391 kts | 94° |
| 2026-04-19 05:50 | 20.33638 | -103.60754 | 19667 ft | 386 kts | 94° |
| 2026-04-19 05:51 | 20.33507 | -103.57918 | 19173 ft | 381 kts | 94° |
| 2026-04-19 05:51 | 20.33375 | -103.55120 | 18683 ft | 376 kts | 94° |
| 2026-04-19 05:51 | 20.33246 | -103.52378 | 18181 ft | 372 kts | 94° |
| 2026-04-19 05:51 | 20.33118 | -103.49649 | 17680 ft | 366 kts | 94° |
| 2026-04-19 05:52 | 20.32991 | -103.46959 | 17210 ft | 361 kts | 94° |
| 2026-04-19 05:52 | 20.32865 | -103.44313 | 16745 ft | 354 kts | 94° |
| 2026-04-19 05:52 | 20.32744 | -103.41746 | 16293 ft | 337 kts | 94° |
| 2026-04-19 05:52 | 20.32627 | -103.39299 | 15857 ft | 324 kts | 94° |
| 2026-04-19 05:53 | 20.32515 | -103.36944 | 15439 ft | 312 kts | 94° |
| 2026-04-19 05:53 | 20.32405 | -103.34680 | 15034 ft | 301 kts | 94° |
| 2026-04-19 05:53 | 20.32298 | -103.32485 | 14646 ft | 292 kts | 94° |
| 2026-04-19 05:53 | 20.32197 | -103.30357 | 14266 ft | 284 kts | 94° |
| 2026-04-19 05:54 | 20.32098 | -103.28295 | 14083 ft | 270 kts | 94° |
| 2026-04-19 05:54 | 20.32003 | -103.26363 | 14073 ft | 252 kts | 94° |
| 2026-04-19 05:54 | 20.31915 | -103.24531 | 13858 ft | 245 kts | 94° |
| 2026-04-19 05:54 | 20.31826 | -103.22724 | 13538 ft | 243 kts | 94° |
| 2026-04-19 05:55 | 20.31738 | -103.20934 | 13220 ft | 240 kts | 94° |
| 2026-04-19 05:55 | 20.31655 | -103.19198 | 12791 ft | 236 kts | 94° |
| 2026-04-19 05:55 | 20.31569 | -103.17462 | 12352 ft | 233 kts | 94° |
| 2026-04-19 05:55 | 20.31488 | -103.15737 | 11847 ft | 234 kts | 92° |
| 2026-04-19 05:56 | 20.31712 | -103.14072 | 11357 ft | 222 kts | 74° |
| 2026-04-19 05:56 | 20.32333 | -103.12599 | 10924 ft | 213 kts | 58° |
| 2026-04-19 05:56 | 20.33220 | -103.11438 | 10867 ft | 194 kts | 45° |
| 2026-04-19 05:56 | 20.34282 | -103.10571 | 10754 ft | 197 kts | 31° |
| 2026-04-19 05:57 | 20.35561 | -103.09941 | 10416 ft | 205 kts | 21° |
| 2026-04-19 05:57 | 20.36884 | -103.09320 | 10047 ft | 211 kts | 23° |
| 2026-04-19 05:57 | 20.38182 | -103.08683 | 9621 ft | 206 kts | 22° |
| 2026-04-19 05:57 | 20.39503 | -103.08242 | 9326 ft | 191 kts | 3° |
| 2026-04-19 05:58 | 20.40797 | -103.08318 | 9094 ft | 184 kts | 345° |
| 2026-04-19 05:58 | 20.41978 | -103.08799 | 8867 ft | 182 kts | 327° |
| 2026-04-19 05:58 | 20.42958 | -103.09665 | 8521 ft | 186 kts | 308° |
| 2026-04-19 05:58 | 20.43625 | -103.10809 | 8286 ft | 178 kts | 294° |
| 2026-04-19 05:59 | 20.44151 | -103.11971 | 8089 ft | 172 kts | 294° |
| 2026-04-19 05:59 | 20.44654 | -103.13122 | 7896 ft | 172 kts | 292° |
| 2026-04-19 05:59 | 20.45130 | -103.14301 | 7700 ft | 173 kts | 291° |
| 2026-04-19 05:59 | 20.45623 | -103.15452 | 7514 ft | 168 kts | 294° |
| 2026-04-19 06:00 | 20.46101 | -103.16591 | 7340 ft | 161 kts | 291° |
| 2026-04-19 06:00 | 20.46527 | -103.17622 | 7162 ft | 142 kts | 293° |
| 2026-04-19 06:00 | 20.46922 | -103.18547 | 7000 ft | 133 kts | 291° |
| 2026-04-19 06:00 | 20.47286 | -103.19445 | 6859 ft | 131 kts | 293° |
| 2026-04-19 06:01 | 20.47665 | -103.20314 | 6719 ft | 130 kts | 291° |
| 2026-04-19 06:01 | 20.48020 | -103.21204 | 6576 ft | 130 kts | 292° |
| 2026-04-19 06:01 | 20.48406 | -103.22080 | 6428 ft | 131 kts | 293° |
| 2026-04-19 06:01 | 20.48772 | -103.22970 | 6291 ft | 130 kts | 291° |
| 2026-04-19 06:02 | 20.49143 | -103.23854 | 6147 ft | 131 kts | 294° |
| 2026-04-19 06:02 | 20.49544 | -103.24727 | 6017 ft | 131 kts | 292° |
| 2026-04-19 06:02 | 20.49911 | -103.25627 | 5869 ft | 134 kts | 290° |
| 2026-04-19 06:02 | 20.50261 | -103.26528 | 5644 ft | 131 kts | 289° |
| 2026-04-19 06:03 | 20.50634 | -103.27396 | 5399 ft | 123 kts | 291° |
| 2026-04-19 06:03 | 20.50966 | -103.28231 | 5291 ft | 126 kts | 293° |
| 2026-04-19 06:03 | 20.51340 | -103.29114 | 5107 ft | 131 kts | 293° |
| 2026-04-19 06:03 | 20.51703 | -103.29973 | 5188 ft | 134 kts | 293° |
| 2026-04-19 06:04 | 20.52111 | -103.30980 | 5655 ft | 169 kts | 291° |
| 2026-04-19 06:04 | 20.52291 | -103.32395 | 6210 ft | 223 kts | 261° |
| 2026-04-19 06:04 | 20.51607 | -103.34067 | 7012 ft | 258 kts | 233° |
| 2026-04-19 06:04 | 20.50386 | -103.35360 | 7865 ft | 238 kts | 223° |
| 2026-04-19 06:05 | 20.49193 | -103.36476 | 8603 ft | 217 kts | 223° |
| 2026-04-19 06:05 | 20.48132 | -103.37525 | 9210 ft | 203 kts | 224° |
| 2026-04-19 06:05 | 20.47102 | -103.38568 | 9773 ft | 206 kts | 224° |
| 2026-04-19 06:05 | 20.46210 | -103.39756 | 10290 ft | 209 kts | 242° |
| 2026-04-19 06:06 | 20.45354 | -103.41065 | 10810 ft | 223 kts | 216° |
| 2026-04-19 06:06 | 20.44412 | -103.41503 | 11023 ft | 230 kts | 190° |
| 2026-04-19 06:06 | 20.42849 | -103.41230 | 11030 ft | 232 kts | 150° |
| 2026-04-19 06:06 | 20.41684 | -103.40130 | 11284 ft | 218 kts | 136° |
| 2026-04-19 06:07 | 20.40538 | -103.39054 | 11548 ft | 223 kts | 144° |
| 2026-04-19 06:07 | 20.39418 | -103.37913 | 11796 ft | 227 kts | 120° |
| 2026-04-19 06:07 | 20.39062 | -103.36275 | 12058 ft | 229 kts | 97° |
| 2026-04-19 06:07 | 20.38816 | -103.34611 | 12333 ft | 227 kts | 106° |
| 2026-04-19 06:08 | 20.38304 | -103.33017 | 12511 ft | 231 kts | 112° |
| 2026-04-19 06:08 | 20.37726 | -103.31399 | 12492 ft | 233 kts | 111° |
| 2026-04-19 06:08 | 20.37191 | -103.29787 | 12522 ft | 227 kts | 110° |
| 2026-04-19 06:08 | 20.36689 | -103.28246 | 12859 ft | 214 kts | 110° |
| 2026-04-19 06:09 | 20.36167 | -103.26668 | 13012 ft | 236 kts | 110° |
| 2026-04-19 06:09 | 20.35630 | -103.25046 | 13015 ft | 232 kts | 110° |
| 2026-04-19 06:09 | 20.35095 | -103.23426 | 12904 ft | 232 kts | 110° |
| 2026-04-19 06:09 | 20.34556 | -103.21794 | 12640 ft | 234 kts | 110° |
| 2026-04-19 06:10 | 20.34016 | -103.20165 | 12335 ft | 232 kts | 110° |
| 2026-04-19 06:10 | 20.33480 | -103.18540 | 12028 ft | 232 kts | 110° |
| 2026-04-19 06:10 | 20.32943 | -103.16918 | 11716 ft | 232 kts | 109° |
| 2026-04-19 06:10 | 20.32669 | -103.15229 | 11401 ft | 234 kts | 91° |
| 2026-04-19 06:11 | 20.32883 | -103.13510 | 11090 ft | 236 kts | 75° |
| 2026-04-19 06:11 | 20.33564 | -103.11915 | 10773 ft | 238 kts | 57° |
| 2026-04-19 06:11 | 20.34664 | -103.10589 | 10449 ft | 240 kts | 39° |
| 2026-04-19 06:12 | 20.37628 | -103.08987 | 9791 ft | 243 kts | 17° |
| 2026-04-19 06:12 | 20.39291 | -103.08746 | 9440 ft | 241 kts | 356° |
| 2026-04-19 06:12 | 20.40916 | -103.09033 | 9117 ft | 232 kts | 339° |
| 2026-04-19 06:12 | 20.42329 | -103.09777 | 8813 ft | 222 kts | 323° |
| 2026-04-19 06:13 | 20.43446 | -103.10857 | 8529 ft | 213 kts | 308° |
| 2026-04-19 06:13 | 20.44203 | -103.12118 | 8265 ft | 193 kts | 294° |
| 2026-04-19 06:13 | 20.44723 | -103.13377 | 7967 ft | 181 kts | 293° |
| 2026-04-19 06:13 | 20.45257 | -103.14574 | 7666 ft | 175 kts | 294° |
| 2026-04-19 06:14 | 20.45738 | -103.15736 | 7466 ft | 169 kts | 291° |
| 2026-04-19 06:14 | 20.46216 | -103.16889 | 7283 ft | 170 kts | 294° |
| 2026-04-19 06:14 | 20.46720 | -103.18053 | 7093 ft | 175 kts | 292° |
| 2026-04-19 06:14 | 20.47185 | -103.19208 | 6905 ft | 166 kts | 292° |
| 2026-04-19 06:15 | 20.47675 | -103.20335 | 6726 ft | 170 kts | 293° |
| 2026-04-19 06:15 | 20.48139 | -103.21484 | 6545 ft | 171 kts | 292° |
| 2026-04-19 06:15 | 20.48628 | -103.22628 | 6374 ft | 159 kts | 294° |
| 2026-04-19 06:15 | 20.49051 | -103.23637 | 6192 ft | 139 kts | 290° |
| 2026-04-19 06:16 | 20.49419 | -103.24563 | 6010 ft | 134 kts | 290° |
| 2026-04-19 06:16 | 20.49821 | -103.25440 | 5812 ft | 130 kts | 294° |
| 2026-04-19 06:16 | 20.50199 | -103.26313 | 5650 ft | 129 kts | 290° |
| 2026-04-19 06:16 | 20.50544 | -103.27211 | 5508 ft | 132 kts | 291° |
| 2026-04-19 06:17 | 20.50918 | -103.28106 | 5318 ft | 130 kts | 291° |
| 2026-04-19 06:17 | 20.51282 | -103.28978 | 5133 ft | 127 kts | 292° |
| 2026-04-19 06:17 | 20.51653 | -103.29865 | 5337 ft | 131 kts | 293° |
| 2026-04-19 06:17 | 20.52047 | -103.30780 | 5708 ft | 151 kts | 294° |
| 2026-04-19 06:18 | 20.52231 | -103.31978 | 6161 ft | 180 kts | 269° |
| 2026-04-19 06:18 | 20.52017 | -103.33359 | 6754 ft | 197 kts | 245° |
| 2026-04-19 06:18 | 20.51105 | -103.34516 | 7364 ft | 224 kts | 226° |
| 2026-04-19 06:18 | 20.49914 | -103.35758 | 8111 ft | 253 kts | 225° |
| 2026-04-19 06:19 | 20.48608 | -103.37080 | 9015 ft | 250 kts | 224° |
| 2026-04-19 06:19 | 20.47386 | -103.38282 | 9810 ft | 228 kts | 224° |
| 2026-04-19 06:19 | 20.46425 | -103.39541 | 10397 ft | 215 kts | 239° |
| 2026-04-19 06:19 | 20.45810 | -103.41051 | 10933 ft | 229 kts | 253° |
| 2026-04-19 06:20 | 20.45628 | -103.42788 | 11004 ft | 239 kts | 266° |
| 2026-04-19 06:20 | 20.45519 | -103.44494 | 11096 ft | 228 kts | 263° |
| 2026-04-19 06:20 | 20.45383 | -103.46134 | 11506 ft | 225 kts | 264° |
| 2026-04-19 06:20 | 20.45267 | -103.47864 | 11946 ft | 236 kts | 264° |
| 2026-04-19 06:21 | 20.45157 | -103.49608 | 12391 ft | 237 kts | 264° |
| 2026-04-19 06:21 | 20.45094 | -103.51387 | 12841 ft | 244 kts | 274° |
| 2026-04-19 06:21 | 20.45550 | -103.53138 | 13297 ft | 247 kts | 293° |
| 2026-04-19 06:21 | 20.46444 | -103.54809 | 13747 ft | 276 kts | 301° |
| 2026-04-19 06:22 | 20.47476 | -103.56668 | 14524 ft | 305 kts | 300° |
| 2026-04-19 06:22 | 20.48595 | -103.58706 | 15357 ft | 332 kts | 300° |
| 2026-04-19 06:22 | 20.49825 | -103.60908 | 16236 ft | 359 kts | 300° |
| 2026-04-19 06:22 | 20.51136 | -103.63249 | 17390 ft | 372 kts | 300° |
| 2026-04-19 06:23 | 20.52464 | -103.65637 | 18819 ft | 377 kts | 299° |
| 2026-04-19 06:23 | 20.53811 | -103.68065 | 20074 ft | 382 kts | 298° |
| 2026-04-19 06:23 | 20.55177 | -103.70521 | 21340 ft | 387 kts | 298° |
| 2026-04-19 06:23 | 20.56590 | -103.73070 | 21872 ft | 414 kts | 297° |
| 2026-04-19 06:24 | 20.58070 | -103.75757 | 21885 ft | 420 kts | 297° |
| 2026-04-19 06:24 | 20.59554 | -103.78434 | 21887 ft | 420 kts | 298° |
| 2026-04-19 06:24 | 20.61056 | -103.81124 | 21887 ft | 423 kts | 298° |
| 2026-04-19 06:24 | 20.62540 | -103.83796 | 21885 ft | 422 kts | 298° |
| 2026-04-19 06:25 | 20.64048 | -103.86518 | 21890 ft | 420 kts | 298° |
| 2026-04-19 06:25 | 20.65535 | -103.89203 | 21888 ft | 420 kts | 298° |
| 2026-04-19 06:25 | 20.67029 | -103.91898 | 21889 ft | 422 kts | 298° |
| 2026-04-19 06:25 | 20.68508 | -103.94567 | 21889 ft | 423 kts | 298° |
| 2026-04-19 06:26 | 20.70004 | -103.97266 | 21888 ft | 421 kts | 298° |
| 2026-04-19 06:26 | 20.71488 | -103.99948 | 21889 ft | 420 kts | 297° |
| 2026-04-19 06:26 | 20.72974 | -104.02637 | 21896 ft | 422 kts | 298° |
| 2026-04-19 06:26 | 20.74473 | -104.05348 | 21897 ft | 422 kts | 297° |
| 2026-04-19 06:27 | 20.75963 | -104.08041 | 21892 ft | 421 kts | 298° |
| 2026-04-19 06:27 | 20.77450 | -104.10737 | 21897 ft | 421 kts | 297° |
| 2026-04-19 06:27 | 20.78935 | -104.13428 | 21899 ft | 420 kts | 297° |
| 2026-04-19 06:27 | 20.80416 | -104.16107 | 21505 ft | 411 kts | 298° |
| 2026-04-19 06:28 | 20.81839 | -104.18684 | 20972 ft | 394 kts | 298° |
| 2026-04-19 06:28 | 20.83169 | -104.21188 | 20456 ft | 381 kts | 294° |
| 2026-04-19 06:28 | 20.84091 | -104.23814 | 19940 ft | 376 kts | 284° |
| 2026-04-19 06:28 | 20.84577 | -104.26558 | 19432 ft | 377 kts | 274° |
| 2026-04-19 06:29 | 20.84612 | -104.29354 | 18921 ft | 376 kts | 264° |
| 2026-04-19 06:29 | 20.84230 | -104.32113 | 18417 ft | 374 kts | 258° |
| 2026-04-19 06:29 | 20.83785 | -104.34812 | 17880 ft | 371 kts | 259° |
| 2026-04-19 06:29 | 20.83358 | -104.37523 | 17376 ft | 368 kts | 259° |
| 2026-04-19 06:30 | 20.82926 | -104.40216 | 16876 ft | 366 kts | 259° |
| 2026-04-19 06:30 | 20.82487 | -104.42890 | 16383 ft | 364 kts | 259° |
| 2026-04-19 06:30 | 20.82245 | -104.45580 | 15870 ft | 365 kts | 269° |
| 2026-04-19 06:30 | 20.82475 | -104.48275 | 15375 ft | 363 kts | 276° |
| 2026-04-19 06:31 | 20.82776 | -104.50947 | 14883 ft | 361 kts | 275° |
| 2026-04-19 06:31 | 20.83063 | -104.53605 | 14401 ft | 359 kts | 275° |
| 2026-04-19 06:31 | 20.83349 | -104.56255 | 13910 ft | 357 kts | 275° |
| 2026-04-19 06:31 | 20.83637 | -104.58883 | 13399 ft | 355 kts | 275° |
| 2026-04-19 06:32 | 20.83929 | -104.61487 | 12914 ft | 351 kts | 275° |
| 2026-04-19 06:32 | 20.84218 | -104.64065 | 12438 ft | 344 kts | 275° |
| 2026-04-19 06:32 | 20.84492 | -104.66531 | 11982 ft | 327 kts | 274° |
| 2026-04-19 06:32 | 20.84724 | -104.68895 | 11547 ft | 312 kts | 274° |
| 2026-04-19 06:33 | 20.84956 | -104.71121 | 11135 ft | 300 kts | 274° |
| 2026-04-19 06:33 | 20.85200 | -104.73301 | 10735 ft | 290 kts | 274° |
| 2026-04-19 06:33 | 20.85430 | -104.75414 | 10346 ft | 283 kts | 274° |
| 2026-04-19 06:33 | 20.85652 | -104.77495 | 9966 ft | 280 kts | 274° |
| 2026-04-19 06:34 | 20.85873 | -104.79559 | 9562 ft | 279 kts | 274° |
| 2026-04-19 06:34 | 20.86095 | -104.81616 | 9176 ft | 278 kts | 274° |
| 2026-04-19 06:34 | 20.86311 | -104.83663 | 8799 ft | 275 kts | 275° |
| 2026-04-19 06:34 | 20.86528 | -104.85657 | 8440 ft | 267 kts | 275° |
| 2026-04-19 06:35 | 20.86739 | -104.87608 | 8075 ft | 261 kts | 275° |
| 2026-04-19 06:35 | 20.86943 | -104.89519 | 7725 ft | 256 kts | 275° |
| 2026-04-19 06:35 | 20.87142 | -104.91391 | 7386 ft | 251 kts | 275° |
| 2026-04-19 06:35 | 20.87337 | -104.93228 | 7053 ft | 247 kts | 275° |
| 2026-04-19 06:36 | 20.87529 | -104.95040 | 6710 ft | 244 kts | 276° |
| 2026-04-19 06:36 | 20.87723 | -104.96840 | 6381 ft | 242 kts | 276° |
| 2026-04-19 06:36 | 20.87913 | -104.98621 | 6042 ft | 240 kts | 276° |
| 2026-04-19 06:36 | 20.88053 | -105.00387 | 5708 ft | 237 kts | 269° |
| 2026-04-19 06:37 | 20.87732 | -105.02081 | 5387 ft | 235 kts | 251° |
| 2026-04-19 06:37 | 20.86976 | -105.03612 | 5074 ft | 234 kts | 233° |
| 2026-04-19 06:37 | 20.85881 | -105.04900 | 4763 ft | 233 kts | 226° |
| 2026-04-19 06:37 | 20.84775 | -105.06168 | 4436 ft | 232 kts | 227° |
| 2026-04-19 06:38 | 20.83687 | -105.07429 | 4122 ft | 231 kts | 227° |
| 2026-04-19 06:38 | 20.82606 | -105.08667 | 3806 ft | 222 kts | 227° |
| 2026-04-19 06:38 | 20.81573 | -105.09852 | 3507 ft | 215 kts | 227° |
| 2026-04-19 06:38 | 20.80579 | -105.10989 | 3238 ft | 203 kts | 227° |
| 2026-04-19 06:39 | 20.79607 | -105.12107 | 2957 ft | 210 kts | 227° |
| 2026-04-19 06:39 | 20.78603 | -105.13259 | 2672 ft | 212 kts | 227° |
| 2026-04-19 06:39 | 20.77600 | -105.14413 | 2384 ft | 212 kts | 227° |
| 2026-04-19 06:39 | 20.76613 | -105.15546 | 2091 ft | 209 kts | 226° |
| 2026-04-19 06:40 | 20.75627 | -105.16675 | 1802 ft | 206 kts | 226° |
| 2026-04-19 06:40 | 20.74657 | -105.17791 | 1542 ft | 204 kts | 226° |
| 2026-04-19 06:40 | 20.73708 | -105.18880 | 1424 ft | 190 kts | 226° |
| 2026-04-19 06:40 | 20.72869 | -105.19842 | 1189 ft | 179 kts | 226° |
| 2026-04-19 06:41 | 20.72091 | -105.20732 | 956 ft | 153 kts | 226° |
| 2026-04-19 06:41 | 20.71410 | -105.21512 | 754 ft | 135 kts | 226° |
| 2026-04-19 06:41 | 20.70789 | -105.22225 | 574 ft | 129 kts | 226° |
| 2026-04-19 06:41 | 20.70187 | -105.22922 | 425 ft | 126 kts | 226° |
| 2026-04-19 06:42 | 20.69586 | -105.23606 | 243 ft | 127 kts | 226° |
| 2026-04-19 06:42 | 20.68981 | -105.24294 | 93 ft | 125 kts | 226° |
| 2026-04-19 06:42 | 20.68395 | -105.24964 | 271 ft | 124 kts | 225° |
| 2026-04-19 06:42 | 20.67705 | -105.25745 | 368 ft | 168 kts | 226° |
| 2026-04-19 06:43 | 20.66799 | -105.26770 | 526 ft | 210 kts | 226° |
| 2026-04-19 06:43 | 20.65734 | -105.27979 | 943 ft | 231 kts | 226° |
| 2026-04-19 06:43 | 20.64610 | -105.29252 | 1506 ft | 241 kts | 226° |
| 2026-04-19 06:43 | 20.63440 | -105.30580 | 2058 ft | 249 kts | 227° |
| 2026-04-19 06:44 | 20.62251 | -105.31928 | 2591 ft | 255 kts | 227° |
| 2026-04-19 06:44 | 20.61071 | -105.33263 | 3118 ft | 235 kts | 227° |
| 2026-04-19 06:44 | 20.59997 | -105.34479 | 3619 ft | 218 kts | 227° |
| 2026-04-19 06:44 | 20.58971 | -105.35666 | 4113 ft | 218 kts | 232° |
| 2026-04-19 06:45 | 20.58445 | -105.37159 | 4598 ft | 217 kts | 268° |
| 2026-04-19 06:45 | 20.58565 | -105.38765 | 5099 ft | 218 kts | 278° |
| 2026-04-19 06:45 | 20.58774 | -105.40377 | 5604 ft | 221 kts | 278° |
| 2026-04-19 06:45 | 20.58986 | -105.42020 | 5987 ft | 229 kts | 278° |
| 2026-04-19 06:46 | 20.59208 | -105.43712 | 5998 ft | 228 kts | 278° |
| 2026-04-19 06:46 | 20.59423 | -105.45364 | 5996 ft | 222 kts | 278° |
| 2026-04-19 06:46 | 20.59636 | -105.46998 | 5991 ft | 222 kts | 278° |
| 2026-04-19 06:46 | 20.59846 | -105.48638 | 5990 ft | 225 kts | 278° |
| 2026-04-19 06:47 | 20.60069 | -105.50344 | 5996 ft | 243 kts | 278° |
| 2026-04-19 06:47 | 20.60301 | -105.52145 | 6001 ft | 246 kts | 278° |
| 2026-04-19 06:47 | 20.60534 | -105.53957 | 5999 ft | 247 kts | 278° |
| 2026-04-19 06:47 | 20.60967 | -105.55714 | 5979 ft | 245 kts | 300° |
| 2026-04-19 06:48 | 20.62242 | -105.56870 | 5974 ft | 245 kts | 339° |
| 2026-04-19 06:48 | 20.63915 | -105.56931 | 5975 ft | 245 kts | 16° |
| 2026-04-19 06:48 | 20.65294 | -105.55910 | 5979 ft | 246 kts | 49° |
| 2026-04-19 06:48 | 20.66145 | -105.54325 | 5981 ft | 247 kts | 65° |
| 2026-04-19 06:49 | 20.66917 | -105.52689 | 5988 ft | 247 kts | 59° |
| 2026-04-19 06:49 | 20.67848 | -105.51175 | 5996 ft | 247 kts | 54° |
| 2026-04-19 06:49 | 20.68835 | -105.49674 | 6000 ft | 247 kts | 55° |
| 2026-04-19 06:49 | 20.69793 | -105.48148 | 6001 ft | 247 kts | 56° |
| 2026-04-19 06:50 | 20.70739 | -105.46621 | 6002 ft | 245 kts | 56° |
| 2026-04-19 06:50 | 20.71683 | -105.45107 | 6004 ft | 244 kts | 56° |
| 2026-04-19 06:50 | 20.72629 | -105.43596 | 6005 ft | 245 kts | 56° |
| 2026-04-19 06:50 | 20.73580 | -105.42074 | 6004 ft | 246 kts | 56° |
| 2026-04-19 06:51 | 20.74530 | -105.40553 | 6019 ft | 242 kts | 56° |
| 2026-04-19 06:51 | 20.75347 | -105.39241 | 6026 ft | 199 kts | 55° |
| 2026-04-19 06:51 | 20.76110 | -105.38020 | 6010 ft | 197 kts | 56° |
| 2026-04-19 06:51 | 20.76861 | -105.36818 | 6013 ft | 197 kts | 56° |
| 2026-04-19 06:52 | 20.77621 | -105.35599 | 6012 ft | 197 kts | 56° |
| 2026-04-19 06:52 | 20.78380 | -105.34382 | 6012 ft | 197 kts | 55° |
| 2026-04-19 06:52 | 20.79140 | -105.33163 | 6013 ft | 197 kts | 56° |
| 2026-04-19 06:52 | 20.79902 | -105.31942 | 6009 ft | 197 kts | 55° |
| 2026-04-19 06:53 | 20.80659 | -105.30727 | 6010 ft | 197 kts | 56° |
| 2026-04-19 06:53 | 20.81419 | -105.29507 | 6012 ft | 197 kts | 56° |
| 2026-04-19 06:53 | 20.82180 | -105.28289 | 6013 ft | 197 kts | 56° |
| 2026-04-19 06:53 | 20.82687 | -105.27475 | 6011 ft | 198 kts | 56° |
| 2026-04-19 06:54 | 20.83449 | -105.26249 | 6007 ft | 198 kts | 56° |
| 2026-04-19 06:54 | 20.84210 | -105.25026 | 6010 ft | 198 kts | 56° |
| 2026-04-19 06:54 | 20.85221 | -105.23403 | 6009 ft | 198 kts | 56° |
| 2026-04-19 06:54 | 20.85984 | -105.22179 | 6010 ft | 198 kts | 56° |
| 2026-04-19 06:55 | 20.86497 | -105.21353 | 6010 ft | 197 kts | 56° |
| 2026-04-19 06:55 | 20.87259 | -105.20130 | 6011 ft | 197 kts | 55° |
| 2026-04-19 06:55 | 20.88020 | -105.18906 | 6011 ft | 198 kts | 56° |
| 2026-04-19 06:55 | 20.88784 | -105.17679 | 6013 ft | 198 kts | 56° |
| 2026-04-19 06:56 | 20.89546 | -105.16452 | 6009 ft | 198 kts | 56° |
| 2026-04-19 06:56 | 20.90298 | -105.15239 | 6014 ft | 198 kts | 56° |
| 2026-04-19 06:56 | 20.90789 | -105.13850 | 5980 ft | 207 kts | 81° |
| 2026-04-19 06:56 | 20.90725 | -105.12274 | 5779 ft | 213 kts | 104° |
| 2026-04-19 06:57 | 20.90097 | -105.10906 | 5560 ft | 202 kts | 126° |
| 2026-04-19 06:57 | 20.89078 | -105.09885 | 5324 ft | 201 kts | 143° |
| 2026-04-19 06:57 | 20.87983 | -105.08948 | 5063 ft | 202 kts | 140° |
| 2026-04-19 06:57 | 20.86872 | -105.08035 | 4785 ft | 200 kts | 150° |
| 2026-04-19 06:58 | 20.85551 | -105.07621 | 4528 ft | 197 kts | 173° |
| 2026-04-19 06:58 | 20.84201 | -105.07721 | 4265 ft | 195 kts | 195° |
| 2026-04-19 06:58 | 20.82982 | -105.08329 | 4010 ft | 194 kts | 215° |
| 2026-04-19 06:58 | 20.82021 | -105.09336 | 3759 ft | 194 kts | 229° |
| 2026-04-19 06:59 | 20.81105 | -105.10399 | 3501 ft | 194 kts | 226° |
| 2026-04-19 06:59 | 20.80195 | -105.11427 | 3244 ft | 184 kts | 227° |
| 2026-04-19 06:59 | 20.79309 | -105.12449 | 2993 ft | 191 kts | 227° |
| 2026-04-19 06:59 | 20.78438 | -105.13447 | 2746 ft | 175 kts | 227° |
| 2026-04-19 07:00 | 20.77625 | -105.14385 | 2511 ft | 170 kts | 227° |
| 2026-04-19 07:00 | 20.76843 | -105.15281 | 2314 ft | 153 kts | 227° |
| 2026-04-19 07:00 | 20.76166 | -105.16057 | 2110 ft | 137 kts | 227° |
| 2026-04-19 07:00 | 20.75537 | -105.16781 | 1924 ft | 130 kts | 226° |
| 2026-04-19 07:01 | 20.74935 | -105.17472 | 1752 ft | 124 kts | 226° |
| 2026-04-19 07:01 | 20.74330 | -105.18165 | 1597 ft | 130 kts | 226° |
| 2026-04-19 07:01 | 20.73724 | -105.18861 | 1422 ft | 126 kts | 226° |
| 2026-04-19 07:01 | 20.73128 | -105.19531 | 1255 ft | 123 kts | 226° |
| 2026-04-19 07:02 | 20.72549 | -105.20214 | 1088 ft | 125 kts | 226° |
| 2026-04-19 07:02 | 20.71948 | -105.20891 | 920 ft | 127 kts | 226° |
| 2026-04-19 07:02 | 20.71346 | -105.21588 | 746 ft | 128 kts | 226° |
| 2026-04-19 07:02 | 20.70744 | -105.22281 | 578 ft | 127 kts | 226° |
| 2026-04-19 07:03 | 20.70146 | -105.22961 | 453 ft | 125 kts | 226° |
| 2026-04-19 07:03 | 20.69539 | -105.23665 | 258 ft | 132 kts | 227° |
| 2026-04-19 07:03 | 20.68909 | -105.24374 | 55 ft | 129 kts | 227° |
| 2026-04-19 07:03 | 20.68415 | -105.24952 | 23 ft | 73 kts | 227° |
| 2026-04-19 07:04 | 20.68210 | -105.25188 | 23 ft | 36 kts | 227° |
| 2026-04-19 07:04 | 20.68070 | -105.25343 | 24 ft | 15 kts | 202° |
| 2026-04-19 07:04 | 20.67970 | -105.25277 | 26 ft | 20 kts | 137° |
| 2026-04-19 07:04 | 20.67853 | -105.25163 | 25 ft | 19 kts | 136° |
| 2026-04-19 07:05 | 20.67788 | -105.25115 | 27 ft | 11 kts | 188° |
| 2026-04-19 07:05 | 20.67727 | -105.25182 | 23 ft | 15 kts | 227° |
| 2026-04-19 07:05 | 20.67660 | -105.25206 | 23 ft | 12 kts | 138° |
| 2026-04-19 07:05 | 20.67613 | -105.25164 | 23 ft | 8 kts | 161° |
| 2026-04-19 07:06 | 20.67603 | -105.25163 | 23 ft | 0 kts | 176° |